METAR Data
IDs: Format: Raw Decoded Include TAF

Data at: 0329 UTC 19 Oct 2021

ZSSS 190300Z 35007MPS CAVOK 19/10 Q1024 NOSIG